Time;durP1;ratioP1;P1;durP2;ratioP2;P2;SDS_P1;SDS_P2;PMS_P1;PMS_P2;Temp;Humidity;BMP_temperature;BMP_pressure;BME280_temperature;BME280_humidity;BME280_pressure;Samples;Min_cycle;Max_cycle;Signal;HPM_P1;HPM_P2
2023/06/12 00:01:10;;;;;;;6.50;5.05;;;17.70;98.20;;;;;;5076244;28;20107;-74
2023/06/12 00:03:35;;;;;;;5.65;5.15;;;17.70;99.00;;;;;;5085147;28;20082;-74
2023/06/12 00:06:01;;;;;;;7.40;5.18;;;17.60;99.10;;;;;;5077232;28;20537;-73
2023/06/12 00:08:29;;;;;;;5.80;4.38;;;17.60;99.30;;;;;;5089161;28;20028;-74
2023/06/12 00:10:55;;;;;;;5.53;4.70;;;17.60;99.40;;;;;;5078104;28;20107;-73
2023/06/12 00:13:20;;;;;;;6.80;5.20;;;17.50;99.40;;;;;;5079789;28;20110;-73
2023/06/12 00:15:46;;;;;;;5.70;4.68;;;17.50;99.20;;;;;;5079982;28;20165;-73
2023/06/12 00:18:12;;;;;;;4.70;4.30;;;17.50;96.00;;;;;;5086432;28;20024;-73
2023/06/12 00:20:38;;;;;;;5.30;4.40;;;17.50;95.20;;;;;;5075386;28;20031;-73
2023/06/12 00:23:04;;;;;;;6.65;4.80;;;17.40;95.40;;;;;;5067534;28;20086;-72
2023/06/12 00:25:30;;;;;;;5.75;4.90;;;17.40;95.60;;;;;;5071635;28;20517;-73
2023/06/12 00:27:55;;;;;;;5.78;4.90;;;17.40;95.80;;;;;;5088785;28;20099;-73
2023/06/12 00:30:21;;;;;;;5.68;5.15;;;17.40;95.90;;;;;;5072832;28;20059;-75
2023/06/12 00:32:47;;;;;;;5.20;4.70;;;17.40;96.20;;;;;;5088232;28;20526;-76
2023/06/12 00:35:13;;;;;;;5.35;4.82;;;17.30;96.10;;;;;;5086233;28;20108;-77
2023/06/12 00:37:41;;;;;;;4.10;3.75;;;17.30;96.20;;;;;;5089917;28;20024;-77
2023/06/12 00:40:09;;;;;;;5.65;4.85;;;17.30;96.40;;;;;;5087353;28;20036;-76
2023/06/12 00:42:55;;;;;;;5.43;4.75;;;17.20;97.10;;;;;;5089150;28;20036;-76
2023/06/12 00:45:22;;;;;;;6.55;4.60;;;17.20;98.30;;;;;;5087786;28;20401;-75
2023/06/12 00:47:56;;;;;;;5.05;4.53;;;17.20;99.90;;;;;;5079238;28;20412;-75
2023/06/12 00:50:26;;;;;;;5.43;4.60;;;17.20;99.90;;;;;;5087631;28;20059;-76
2023/06/12 00:52:52;;;;;;;5.07;4.57;;;17.20;99.90;;;;;;5088381;28;20615;-76
2023/06/12 00:55:19;;;;;;;5.85;5.07;;;17.20;99.90;;;;;;5087536;28;20457;-76
2023/06/12 00:57:46;;;;;;;5.53;4.53;;;17.20;99.90;;;;;;5087778;28;20030;-78
2023/06/12 01:00:14;;;;;;;8.63;4.50;;;17.20;99.90;;;;;;5085984;28;20043;-79
2023/06/12 01:02:44;;;;;;;5.95;5.30;;;17.10;99.90;;;;;;5084865;28;20075;-79
2023/06/12 01:05:13;;;;;;;5.68;4.43;;;17.10;99.90;;;;;;5080232;28;20032;-76
2023/06/12 01:07:51;;;;;;;5.10;4.60;;;17.10;99.90;;;;;;5085188;28;20031;-76
2023/06/12 01:10:39;;;;;;;5.45;4.78;;;17.00;99.90;;;;;;5083909;28;20457;-75
2023/06/12 01:13:06;;;;;;;7.07;4.93;;;17.00;99.90;;;;;;5083146;28;20040;-76
2023/06/12 01:15:32;;;;;;;8.50;4.70;;;17.00;99.90;;;;;;5091532;28;20024;-75
2023/06/12 01:17:58;;;;;;;5.78;4.72;;;17.00;99.90;;;;;;5089804;28;20074;-75
2023/06/12 01:20:24;;;;;;;5.47;4.50;;;17.00;99.90;;;;;;5089655;28;20032;-76
2023/06/12 01:23:05;;;;;;;4.97;4.15;;;16.90;99.90;;;;;;5093337;28;20055;-76
2023/06/12 01:25:49;;;;;;;;;;;16.90;99.90;;;;;;5091537;28;20043;-76
2023/06/12 01:28:39;;;;;;;5.10;4.60;;;16.90;99.90;;;;;;5080733;28;20439;-76
2023/06/12 01:31:21;;;;;;;4.95;4.45;;;16.90;99.90;;;;;;5089634;28;20083;-76
2023/06/12 01:34:01;;;;;;;6.57;5.05;;;16.80;99.90;;;;;;5089463;28;20036;-77
2023/06/12 01:36:28;;;;;;;5.47;4.57;;;16.80;99.90;;;;;;5091302;28;20035;-77
2023/06/12 01:38:59;;;;;;;6.00;4.43;;;16.90;99.90;;;;;;5090617;28;20920;-77
2023/06/12 01:41:27;;;;;;;5.35;4.85;;;16.90;99.90;;;;;;5089293;28;20035;-77
2023/06/12 01:43:53;;;;;;;4.85;4.43;;;16.90;99.90;;;;;;5075395;28;20036;-76
2023/06/12 01:46:19;;;;;;;5.10;4.60;;;16.90;99.90;;;;;;5084533;28;20078;-76
2023/06/12 01:48:44;;;;;;;7.90;4.70;;;16.90;99.90;;;;;;5107427;28;20051;-76
2023/06/12 01:51:10;;;;;;;4.72;4.32;;;16.90;99.90;;;;;;5114424;28;20456;-76
2023/06/12 01:53:36;;;;;;;7.68;4.70;;;17.00;99.90;;;;;;5113473;28;20109;-75
2023/06/12 01:56:02;;;;;;;5.47;4.75;;;17.00;99.90;;;;;;5114814;28;20096;-76
2023/06/12 01:58:27;;;;;;;5.20;4.70;;;17.00;99.90;;;;;;5114112;28;20472;-75
2023/06/12 02:00:53;;;;;;;5.40;4.90;;;17.00;99.90;;;;;;5112650;28;20043;-76
2023/06/12 02:03:22;;;;;;;5.75;4.53;;;17.00;99.90;;;;;;5114734;28;20416;-76
2023/06/12 02:05:50;;;;;;;5.93;5.20;;;;;;;;;;5096500;27;20084;-76
2023/06/12 02:08:16;;;;;;;5.15;4.65;;;;;;;;;;5104003;28;20029;-75
2023/06/12 02:10:42;;;;;;;5.03;4.53;;;;;;;;;;5107698;28;20027;-76
2023/06/12 02:13:08;;;;;;;4.63;4.13;;;;;;;;;;5097860;27;20066;-76
2023/06/12 02:15:35;;;;;;;5.82;4.50;;;;;;;;;;5101493;28;20165;-76
2023/06/12 02:18:01;;;;;;;5.63;4.53;;;;;;;;;;5106151;28;20801;-77
2023/06/12 02:20:27;;;;;;;5.70;4.80;;;;;;;;;;5095101;28;20030;-75
2023/06/12 02:22:53;;;;;;;5.18;4.63;;;;;;;;;;5097872;27;20106;-74
2023/06/12 02:25:19;;;;;;;5.82;5.00;;;;;;;;;;5104779;28;20031;-77
2023/06/12 02:27:45;;;;;;;6.43;4.80;;;;;;;;;;5112272;28;20024;-76
2023/06/12 02:30:11;;;;;;;4.90;4.43;;;;;;;;;;5113152;28;20016;-78
2023/06/12 02:32:39;;;;;;;5.70;5.13;;;;;;;;;;5112533;28;20035;-76
2023/06/12 02:35:08;;;;;;;5.55;4.90;;;;;;;;;;5112967;28;20027;-77
2023/06/12 02:37:35;;;;;;;7.45;5.20;;;;;;;;;;5109098;28;20030;-76
2023/06/12 02:40:01;;;;;;;5.35;4.85;;;;;;;;;;5112917;28;20058;-77
2023/06/12 02:42:27;;;;;;;5.07;4.57;;;;;;;;;;5084896;28;20038;-75
2023/06/12 02:44:53;;;;;;;5.65;5.13;;;;;;;;;;5097453;28;20023;-77
2023/06/12 02:47:19;;;;;;;5.22;4.72;;;;;;;;;;5103970;28;20048;-76
2023/06/12 02:49:45;;;;;;;5.90;4.53;;;;;;;;;;5095344;27;20021;-77
2023/06/12 02:52:11;;;;;;;6.38;4.85;;;;;;;;;;5105989;27;20136;-77
2023/06/12 02:54:37;;;;;;;4.78;4.38;;;;;;;;;;5094514;27;20469;-77
2023/06/12 02:57:03;;;;;;;5.15;4.65;;;;;;;;;;5101387;28;20041;-77
2023/06/12 02:59:30;;;;;;;6.07;5.00;;;;;;;;;;5112812;28;20492;-77
2023/06/12 03:01:56;;;;;;;5.20;4.70;;;;;;;;;;5113172;28;20032;-76
2023/06/12 03:04:23;;;;;;;6.03;5.43;;;;;;;;;;5113124;28;20539;-77
2023/06/12 03:06:52;;;;;;;5.30;4.80;;;;;;;;;;5112055;28;20332;-77
2023/06/12 03:09:18;;;;;;;5.70;5.10;;;;;;;;;;5108539;28;20027;-76
2023/06/12 03:11:44;;;;;;;4.95;4.55;;;;;;;;;;5112202;28;20035;-76
2023/06/12 03:14:12;;;;;;;5.05;4.43;;;;;;;;;;5098639;28;20028;-77
2023/06/12 03:16:38;;;;;;;5.55;5.05;;;;;;;;;;5110679;28;20468;-77
2023/06/12 03:19:04;;;;;;;5.82;4.90;;;;;;;;;;5112171;28;20035;-76
2023/06/12 03:21:30;;;;;;;5.45;4.95;;;;;;;;;;5112916;28;20152;-76
2023/06/12 03:23:56;;;;;;;5.60;5.00;;;;;;;;;;5111745;28;20472;-77
2023/06/12 03:26:23;;;;;;;7.50;5.38;;;;;;;;;;5112287;28;20024;-75
2023/06/12 03:28:50;;;;;;;6.00;4.90;;;;;;;;;;5106386;28;20034;-78
2023/06/12 03:31:16;;;;;;;6.00;5.45;;;;;;;;;;5106937;28;20031;-78
2023/06/12 03:33:42;;;;;;;7.80;5.63;;;;;;;;;;5103499;28;20036;-77
2023/06/12 03:36:08;;;;;;;6.10;5.50;;;;;;;;;;5102717;27;20019;-78
2023/06/12 03:38:34;;;;;;;6.00;5.22;;;;;;;;;;5096824;28;20024;-77
2023/06/12 03:41:00;;;;;;;5.65;5.15;;;;;;;;;;5112823;28;20099;-78
2023/06/12 03:43:26;;;;;;;5.70;5.07;;;;;;;;;;5112887;28;20488;-78
2023/06/12 03:45:52;;;;;;;6.82;5.32;;;;;;;;;;5110746;28;20042;-78
2023/06/12 03:48:18;;;;;;;6.45;5.35;;;;;;;;;;5112280;28;20024;-75
2023/06/12 03:50:48;;;;;;;5.85;5.13;;;;;;;;;;5111231;28;20034;-75
2023/06/12 03:53:17;;;;;;;5.07;4.55;;;;;;;;;;5112759;28;20088;-75
2023/06/12 03:55:46;;;;;;;5.45;4.95;;;;;;;;;;5099194;27;20090;-77
2023/06/12 03:58:16;;;;;;;7.32;5.20;;;;;;;;;;5101566;27;20081;-77
2023/06/12 04:00:48;;;;;;;5.55;4.93;;;;;;;;;;5106857;28;20055;-76
2023/06/12 04:03:18;;;;;;;6.93;5.82;;;;;;;;;;5112697;28;20036;-76
2023/06/12 04:05:49;;;;;;;6.07;5.30;;;;;;;;;;5110695;28;20437;-76
2023/06/12 04:08:18;;;;;;;5.70;5.18;;;;;;;;;;5112127;28;20020;-75
2023/06/12 04:10:47;;;;;;;6.47;4.90;;;;;;;;;;5110990;28;20023;-75
2023/06/12 04:13:14;;;;;;;7.38;5.63;;;;;;;;;;5111541;28;20062;-75
2023/06/12 04:15:41;;;;;;;6.93;5.30;;;;;;;;;;5105921;27;20060;-75
2023/06/12 04:18:09;;;;;;;5.95;5.40;;;;;;;;;;5105382;28;20085;-77
2023/06/12 04:20:38;;;;;;;7.20;5.53;;;;;;;;;;5111032;28;20502;-76
2023/06/12 04:23:11;;;;;;;6.72;5.40;;;;;;;;;;5112284;28;20066;-76
2023/06/12 04:25:38;;;;;;;5.82;5.00;;;;;;;;;;5103116;28;20034;-76
2023/06/12 04:28:08;;;;;;;6.15;5.50;;;;;;;;;;5111843;28;20102;-76
2023/06/12 04:30:37;;;;;;;7.50;5.37;;;;;;;;;;5107713;28;20393;-76
2023/06/12 04:33:04;;;;;;;6.18;5.57;;;;;;;;;;5103791;27;20678;-76
2023/06/12 04:35:33;;;;;;;5.97;5.38;;;;;;;;;;5097894;28;20032;-76
2023/06/12 04:38:00;;;;;;;5.93;5.38;;;;;;;;;;5095373;28;20289;-77
2023/06/12 04:40:27;;;;;;;5.97;5.38;;;;;;;;;;5100763;28;20019;-77
2023/06/12 04:42:56;;;;;;;6.53;5.93;;;;;;;;;;5111538;28;20168;-77
2023/06/12 04:45:24;;;;;;;6.45;5.20;;;;;;;;;;5110989;28;20055;-78
2023/06/12 04:47:51;;;;;;;6.07;5.45;;;;;;;;;;5110679;28;20535;-77
2023/06/12 04:50:18;;;;;;;6.20;5.60;;;;;;;;;;5111574;28;20035;-78
2023/06/12 04:52:47;;;;;;;6.50;5.90;;;;;;;;;;5111740;28;20034;-78
2023/06/12 04:55:16;;;;;;;5.93;5.43;;;;;;;;;;5112260;28;20077;-79
2023/06/12 04:57:43;;;;;;;7.95;6.38;;;;;;;;;;5106935;28;20024;-78
2023/06/12 05:00:14;;;;;;;8.23;5.55;;;;;;;;;;5117585;28;20028;-76
2023/06/12 05:02:41;;;;;;;8.02;5.65;;;;;;;;;;5103712;28;20028;-76
2023/06/12 05:05:07;;;;;;;6.72;6.03;;;17.40;99.90;;;;;;5094918;28;20052;-76
2023/06/12 05:07:35;;;;;;;7.40;6.57;;;17.50;99.90;;;;;;5100290;28;20430;-77
2023/06/12 05:10:01;;;;;;;12.05;6.60;;;17.60;99.90;;;;;;5100182;28;20027;-76
2023/06/12 05:12:27;;;;;;;6.82;6.15;;;17.70;99.90;;;;;;5111275;28;20035;-75
2023/06/12 05:14:52;;;;;;;7.00;6.32;;;17.90;99.90;;;;;;5110014;28;20020;-76
2023/06/12 05:17:18;;;;;;;8.73;6.93;;;18.10;99.90;;;;;;5111394;28;20460;-76
2023/06/12 05:19:43;;;;;;;7.50;6.75;;;18.20;99.90;;;;;;5110038;28;20469;-77
2023/06/12 05:22:09;;;;;;;9.20;6.20;;;18.40;99.90;;;;;;5110338;28;20027;-77
2023/06/12 05:24:35;;;;;;;7.30;6.05;;;18.40;99.90;;;;;;5101115;28;20107;-71
2023/06/12 05:27:01;;;;;;;7.28;6.00;;;18.50;99.90;;;;;;5103806;28;20027;-70
2023/06/12 05:29:26;;;;;;;7.60;6.40;;;18.50;99.90;;;;;;5110442;28;20023;-72
2023/06/12 05:31:53;;;;;;;7.30;5.68;;;18.60;99.90;;;;;;5102587;28;20022;-70
2023/06/12 05:34:18;;;;;;;8.88;6.05;;;18.80;99.90;;;;;;5106918;28;20125;-71
2023/06/12 05:36:44;;;;;;;7.20;6.50;;;18.80;99.90;;;;;;5110391;28;20099;-72
2023/06/12 05:39:09;;;;;;;6.63;6.03;;;18.90;99.90;;;;;;5101466;28;20031;-72
2023/06/12 05:41:35;;;;;;;6.63;5.22;;;19.00;99.90;;;;;;5110113;28;20038;-71
2023/06/12 05:44:02;;;;;;;7.65;6.13;;;19.10;99.90;;;;;;5110197;28;20039;-74
2023/06/12 05:46:27;;;;;;;7.28;5.72;;;19.20;99.90;;;;;;5103888;28;20040;-71
2023/06/12 05:48:57;;;;;;;10.13;6.20;;;19.30;99.90;;;;;;5085991;28;20031;-70
2023/06/12 05:51:26;;;;;;;8.03;6.13;;;19.40;99.90;;;;;;5072713;28;20383;-73
2023/06/12 05:53:51;;;;;;;8.73;6.10;;;19.50;99.90;;;;;;5087359;28;20036;-73
2023/06/12 05:56:17;;;;;;;7.35;5.82;;;19.50;99.90;;;;;;5094435;28;20076;-72
2023/06/12 05:58:43;;;;;;;8.20;5.97;;;19.60;99.90;;;;;;5089799;28;20028;-75
2023/06/12 06:01:11;;;;;;;8.18;6.07;;;19.70;99.90;;;;;;5089185;28;21515;-75
2023/06/12 06:03:42;;;;;;;8.77;5.43;;;19.80;99.90;;;;;;5079783;28;20051;-76
2023/06/12 06:06:08;;;;;;;8.27;6.70;;;19.90;99.90;;;;;;5084536;28;20024;-72
2023/06/12 06:08:34;;;;;;;6.85;5.25;;;19.90;99.90;;;;;;5094056;28;20027;-74
2023/06/12 06:11:00;;;;;;;7.07;6.18;;;20.00;99.90;;;;;;5082820;28;20381;-74
2023/06/12 06:13:26;;;;;;;8.48;6.30;;;20.00;99.90;;;;;;5084713;28;20090;-73
2023/06/12 06:15:52;;;;;;;8.52;6.50;;;20.10;99.90;;;;;;5084357;28;20442;-72
2023/06/12 06:18:17;;;;;;;7.25;5.82;;;20.20;99.90;;;;;;5091997;28;20537;-73
2023/06/12 06:20:43;;;;;;;9.27;6.07;;;20.30;99.90;;;;;;5091444;28;20032;-71
2023/06/12 06:23:09;;;;;;;10.32;6.22;;;20.40;99.90;;;;;;5087940;28;20032;-70
2023/06/12 06:25:35;;;;;;;6.38;5.78;;;20.50;99.90;;;;;;5088155;28;20047;-71
2023/06/12 06:28:00;;;;;;;11.10;6.20;;;20.60;99.90;;;;;;5089270;28;20028;-71
2023/06/12 06:30:26;;;;;;;8.75;5.63;;;20.70;99.90;;;;;;5089819;28;20028;-70
2023/06/12 06:32:51;;;;;;;6.63;5.88;;;20.80;99.90;;;;;;5084851;28;20170;-71
2023/06/12 06:35:17;;;;;;;7.88;6.35;;;20.90;99.90;;;;;;5084959;28;20107;-70
2023/06/12 06:37:43;;;;;;;7.93;5.70;;;20.90;99.90;;;;;;5084058;28;20028;-70
2023/06/12 06:40:09;;;;;;;9.18;5.70;;;21.10;99.90;;;;;;5089901;28;20050;-71
2023/06/12 06:42:34;;;;;;;7.82;5.80;;;21.10;99.90;;;;;;5083730;28;20036;-72
2023/06/12 06:45:00;;;;;;;7.35;5.47;;;21.10;99.90;;;;;;5091656;28;20115;-71
2023/06/12 06:47:26;;;;;;;6.47;5.75;;;21.30;99.90;;;;;;5106780;28;20058;-71
2023/06/12 06:49:51;;;;;;;6.15;5.55;;;21.40;99.90;;;;;;5109791;28;20465;-70
2023/06/12 06:52:18;;;;;;;8.35;5.20;;;21.40;99.90;;;;;;5109405;28;20036;-72
2023/06/12 06:54:44;;;;;;;7.10;5.70;;;21.60;99.90;;;;;;5108883;28;20052;-71
2023/06/12 06:57:11;;;;;;;6.20;5.45;;;21.70;99.90;;;;;;5107127;28;20052;-70
2023/06/12 06:59:36;;;;;;;6.75;5.70;;;21.90;99.90;;;;;;5106581;28;20055;-71
2023/06/12 07:02:02;;;;;;;6.95;5.43;;;22.10;99.90;;;;;;5103428;28;20059;-72
2023/06/12 07:04:28;;;;;;;8.23;4.88;;;22.20;99.90;;;;;;5111077;28;20051;-71
2023/06/12 07:06:53;;;;;;;9.75;5.65;;;22.20;99.90;;;;;;5110839;28;20026;-73
2023/06/12 07:09:19;;;;;;;5.97;4.93;;;22.40;99.90;;;;;;5111384;28;20572;-73
2023/06/12 07:11:45;;;;;;;7.55;5.88;;;22.50;99.90;;;;;;5107754;28;20028;-73
2023/06/12 07:14:10;;;;;;;10.73;5.68;;;22.60;99.90;;;;;;5109838;28;20118;-73
2023/06/12 07:16:36;;;;;;;11.10;5.63;;;22.70;99.90;;;;;;5110874;28;20035;-74
2023/06/12 07:19:01;;;;;;;8.57;5.70;;;22.70;99.90;;;;;;5093593;28;20035;-73
2023/06/12 07:21:27;;;;;;;6.10;4.70;;;22.80;99.90;;;;;;5108512;28;20030;-73
2023/06/12 07:23:53;;;;;;;5.97;5.13;;;22.90;99.90;;;;;;5099204;28;20102;-73
2023/06/12 07:26:19;;;;;;;7.28;5.15;;;22.80;99.90;;;;;;5108867;28;20023;-74
2023/06/12 07:28:45;;;;;;;9.77;5.30;;;22.90;99.90;;;;;;5110144;28;20024;-73
2023/06/12 07:31:10;;;;;;;6.10;5.25;;;23.00;99.90;;;;;;5110122;28;20031;-73
2023/06/12 07:33:36;;;;;;;5.80;5.18;;;23.20;99.90;;;;;;5102795;28;20385;-72
2023/06/12 07:36:01;;;;;;;6.90;5.28;;;23.20;99.90;;;;;;5110395;28;20365;-73
2023/06/12 07:38:27;;;;;;;5.97;4.88;;;23.20;99.90;;;;;;5110914;28;20373;-74
2023/06/12 07:40:53;;;;;;;9.43;5.82;;;23.30;99.90;;;;;;5109858;28;20098;-74
2023/06/12 07:43:19;;;;;;;5.50;4.95;;;23.40;99.90;;;;;;5104712;28;20040;-75
2023/06/12 07:45:45;;;;;;;6.20;5.35;;;23.50;99.90;;;;;;5109449;28;20472;-74
2023/06/12 07:48:11;;;;;;;5.70;5.20;;;23.50;99.90;;;;;;5105680;28;20058;-72
2023/06/12 07:50:39;;;;;;;5.93;5.30;;;23.50;99.90;;;;;;5106741;28;20023;-74
2023/06/12 07:53:05;;;;;;;6.72;5.13;;;23.60;99.90;;;;;;5102331;28;20036;-74
2023/06/12 07:55:34;;;;;;;8.10;5.53;;;;;;;;;;5108773;28;20034;-74
2023/06/12 07:58:00;;;;;;;8.40;5.82;;;;;;;;;;5109464;28;20668;-74
2023/06/12 08:00:26;;;;;;;6.22;4.95;;;;;;;;;;5109746;28;20707;-74
2023/06/12 08:02:59;;;;;;;5.30;4.80;;;;;;;;;;5105173;28;20671;-75
2023/06/12 08:05:25;;;;;;;4.85;4.38;;;24.20;99.90;;;;;;5109454;28;20408;-76
2023/06/12 08:07:52;;;;;;;6.32;4.72;;;24.40;99.90;;;;;;5105666;28;20029;-77
2023/06/12 08:10:18;;;;;;;7.03;5.10;;;24.40;99.90;;;;;;5089450;28;20365;-77
2023/06/12 08:12:43;;;;;;;9.80;4.97;;;24.40;99.90;;;;;;5106703;28;20035;-76
2023/06/12 08:15:11;;;;;;;5.55;5.00;;;24.60;99.90;;;;;;5107489;28;20023;-73
2023/06/12 08:17:37;;;;;;;5.85;5.13;;;24.70;87.40;;;;;;5110176;28;20039;-78
2023/06/12 08:20:08;;;;;;;17.00;4.97;;;24.70;87.70;;;;;;5108053;28;20035;-78
2023/06/12 08:22:34;;;;;;;5.22;4.60;;;24.80;91.40;;;;;;5110201;28;20433;-79
2023/06/12 08:25:03;;;;;;;5.93;4.90;;;24.90;96.40;;;;;;5107990;28;20024;-77
2023/06/12 08:27:29;;;;;;;9.48;5.38;;;24.90;98.30;;;;;;5106810;28;20371;-78
2023/06/12 08:29:55;;;;;;;6.90;4.80;;;25.10;97.30;;;;;;5110322;28;20031;-77
2023/06/12 08:32:22;;;;;;;10.60;5.80;;;25.20;96.50;;;;;;5103021;28;20027;-77
2023/06/12 08:34:48;;;;;;;12.25;5.93;;;25.40;94.70;;;;;;5104949;28;20043;-78
2023/06/12 08:37:13;;;;;;;7.30;5.07;;;25.40;94.40;;;;;;5109069;28;20039;-77
2023/06/12 08:39:39;;;;;;;5.50;5.00;;;25.40;92.50;;;;;;5107537;28;20032;-77
2023/06/12 08:42:08;;;;;;;12.02;5.00;;;25.30;92.50;;;;;;5109931;28;20126;-77
2023/06/12 08:44:35;;;;;;;8.80;5.40;;;25.30;90.10;;;;;;5105977;28;20384;-78
2023/06/12 08:47:02;;;;;;;6.65;4.63;;;25.50;88.70;;;;;;5109576;28;20181;-78
2023/06/12 08:49:31;;;;;;;5.53;4.95;;;25.70;83.10;;;;;;5100232;28;20028;-79
2023/06/12 08:51:57;;;;;;;9.00;5.18;;;25.90;79.00;;;;;;5109292;28;20020;-77
2023/06/12 08:54:23;;;;;;;7.45;5.63;;;25.70;78.20;;;;;;5108243;28;20404;-77
2023/06/12 08:56:50;;;;;;;5.68;4.60;;;25.70;79.00;;;;;;5108734;28;20023;-77
2023/06/12 08:59:16;;;;;;;6.00;5.43;;;25.80;80.80;;;;;;5103821;28;20527;-75
2023/06/12 09:01:45;;;;;;;10.25;4.95;;;25.80;82.70;;;;;;5108107;28;20136;-76
2023/06/12 09:04:43;;;;;;;7.45;5.00;;;25.70;83.00;;;;;;5107132;28;20063;-77
2023/06/12 09:07:11;;;;;;;5.88;4.85;;;25.70;82.60;;;;;;5102359;28;20036;-77
2023/06/12 09:09:37;;;;;;;7.18;5.40;;;25.60;83.30;;;;;;5106560;28;20024;-76
2023/06/12 09:12:06;;;;;;;6.03;4.75;;;25.70;82.20;;;;;;5109853;28;20114;-78
2023/06/12 09:14:35;;;;;;;9.38;4.78;;;25.90;83.40;;;;;;5104110;28;20039;-78
2023/06/12 09:17:04;;;;;;;9.55;4.75;;;26.00;80.40;;;;;;5107569;28;20477;-78
2023/06/12 09:19:47;;;;;;;6.40;4.65;;;26.00;79.00;;;;;;5103490;28;20053;-78
2023/06/12 09:22:13;;;;;;;6.10;4.97;;;26.00;79.10;;;;;;5108557;28;20135;-75
2023/06/12 09:24:40;;;;;;;6.35;4.75;;;26.00;76.90;;;;;;5112073;28;20482;-76
2023/06/12 09:27:06;;;;;;;5.72;5.20;;;26.00;73.90;;;;;;5111339;28;20031;-76
2023/06/12 09:29:34;;;;;;;6.47;5.13;;;26.00;75.50;;;;;;5111577;28;20035;-78
2023/06/12 09:32:04;;;;;;;7.20;4.43;;;26.10;74.40;;;;;;5113611;28;20412;-77
2023/06/12 09:34:33;;;;;;;6.38;4.72;;;26.20;73.90;;;;;;5111320;28;20120;-78
2023/06/12 09:37:01;;;;;;;6.00;5.03;;;26.20;72.90;;;;;;5111333;28;20062;-76
2023/06/12 09:39:30;;;;;;;5.88;5.13;;;26.20;72.50;;;;;;5106774;28;20038;-76
2023/06/12 09:41:56;;;;;;;8.75;4.70;;;26.10;72.60;;;;;;5109207;28;20438;-77
2023/06/12 09:44:24;;;;;;;11.80;5.05;;;26.10;72.60;;;;;;5104161;28;20038;-77
2023/06/12 09:46:51;;;;;;;6.93;4.88;;;26.00;72.10;;;;;;5110658;28;20661;-76
2023/06/12 09:49:26;;;;;;;6.18;4.35;;;25.90;72.70;;;;;;5104701;28;20393;-77
2023/06/12 09:51:53;;;;;;;5.85;4.82;;;25.80;72.90;;;;;;5112786;28;20669;-76
2023/06/12 09:54:21;;;;;;;6.22;4.57;;;26.00;72.80;;;;;;5111876;28;20045;-77
2023/06/12 09:56:51;;;;;;;6.18;5.00;;;26.20;73.10;;;;;;5086574;28;20473;-78
2023/06/12 09:59:18;;;;;;;;;;;26.40;73.20;;;;;;5112127;28;20050;-78
2023/06/12 10:01:46;;;;;;;8.07;4.45;;;26.40;73.70;;;;;;5111270;28;20002;-78
2023/06/12 10:04:14;;;;;;;6.85;4.88;;;26.50;71.90;;;;;;5106928;28;20388;-76
2023/06/12 10:06:42;;;;;;;6.13;4.50;;;26.60;71.00;;;;;;5091905;28;20026;-78
2023/06/12 10:09:09;;;;;;;8.05;5.45;;;26.30;71.70;;;;;;5110162;28;20444;-77
2023/06/12 10:11:37;;;;;;;7.15;5.13;;;26.20;71.70;;;;;;5101238;28;20020;-74
2023/06/12 10:14:03;;;;;;;6.80;5.32;;;26.20;71.40;;;;;;5114876;27;20039;-78
2023/06/12 10:16:30;;;;;;;8.00;5.10;;;26.20;70.40;;;;;;5112554;28;20032;-78
2023/06/12 10:18:57;;;;;;;8.45;5.18;;;26.20;70.90;;;;;;5096623;28;20040;-77
2023/06/12 10:21:24;;;;;;;8.52;5.00;;;26.20;70.50;;;;;;5101511;28;20035;-76
2023/06/12 10:23:51;;;;;;;5.07;4.57;;;26.00;70.80;;;;;;5112158;28;20066;-78
2023/06/12 10:26:18;;;;;;;6.28;4.82;;;25.80;70.80;;;;;;5113437;28;20430;-80
2023/06/12 10:28:44;;;;;;;8.85;5.25;;;25.90;71.10;;;;;;5104633;28;20047;-77
2023/06/12 10:31:13;;;;;;;6.57;5.28;;;26.20;70.10;;;;;;5112403;28;20050;-76
2023/06/12 10:33:55;;;;;;;6.93;5.57;;;26.40;69.40;;;;;;5105552;28;20035;-77
2023/06/12 10:36:21;;;;;;;5.78;4.75;;;26.60;69.30;;;;;;5104213;28;20115;-77
2023/06/12 10:38:48;;;;;;;5.93;4.97;;;26.90;69.00;;;;;;5111181;28;20106;-77
2023/06/12 10:41:30;;;;;;;5.57;5.07;;;27.10;67.80;;;;;;5112448;28;20472;-77
2023/06/12 10:43:56;;;;;;;6.95;5.00;;;27.40;68.20;;;;;;5111475;28;20035;-75
2023/06/12 10:46:21;;;;;;;5.82;5.15;;;27.50;67.10;;;;;;5111977;28;20510;-78
2023/06/12 10:48:47;;;;;;;5.40;4.47;;;27.40;66.80;;;;;;5106000;28;20034;-77
2023/06/12 10:51:13;;;;;;;9.77;5.05;;;27.40;66.80;;;;;;5112887;28;20022;-78
2023/06/12 10:53:46;;;;;;;5.90;5.40;;;27.40;66.40;;;;;;5101617;28;20050;-77
2023/06/12 10:56:12;;;;;;;6.30;5.20;;;27.40;66.50;;;;;;5107005;28;20110;-76
2023/06/12 10:58:41;;;;;;;6.00;5.22;;;27.40;66.80;;;;;;5110470;28;20103;-78
2023/06/12 11:01:15;;;;;;;11.17;5.47;;;27.40;66.50;;;;;;5112579;28;20030;-77
2023/06/12 11:03:44;;;;;;;5.60;4.88;;;27.30;66.80;;;;;;5106523;28;20305;-76
2023/06/12 11:06:13;;;;;;;8.57;4.90;;;27.40;67.00;;;;;;5086115;28;20076;-75
2023/06/12 11:08:42;;;;;;;6.18;4.80;;;27.60;66.90;;;;;;5111837;28;20023;-76
2023/06/12 11:11:12;;;;;;;6.25;4.85;;;27.70;66.40;;;;;;5093989;28;20035;-76
2023/06/12 11:13:46;;;;;;;12.07;4.50;;;27.80;66.70;;;;;;5097793;28;20109;-76
2023/06/12 11:16:16;;;;;;;7.47;4.85;;;28.00;66.40;;;;;;5107050;28;20102;-76
2023/06/12 11:18:42;;;;;;;6.22;5.25;;;28.20;66.30;;;;;;5101865;28;20039;-76
2023/06/12 11:21:10;;;;;;;5.75;4.97;;;28.30;65.40;;;;;;5110933;28;20059;-76
2023/06/12 11:23:40;;;;;;;8.88;5.32;;;28.00;65.30;;;;;;5098942;28;20460;-76
2023/06/12 11:26:07;;;;;;;6.70;5.40;;;27.90;65.90;;;;;;5105577;28;20036;-76
2023/06/12 11:28:34;;;;;;;6.60;5.10;;;27.90;66.50;;;;;;5110417;28;20035;-76
2023/06/12 11:31:01;;;;;;;10.27;5.13;;;27.90;66.30;;;;;;5105858;28;20181;-76
2023/06/12 11:33:26;;;;;;;5.60;4.55;;;28.00;65.00;;;;;;5109239;28;20039;-76
2023/06/12 11:35:57;;;;;;;5.43;4.63;;;28.00;64.90;;;;;;5104503;28;20095;-76
2023/06/12 11:38:23;;;;;;;5.53;4.97;;;28.20;66.50;;;;;;5109255;28;20060;-76
2023/06/12 11:40:53;;;;;;;6.25;4.90;;;28.30;66.10;;;;;;5104146;28;20480;-76
2023/06/12 11:43:21;;;;;;;5.10;4.60;;;28.30;63.10;;;;;;5104584;28;20028;-75
2023/06/12 11:45:48;;;;;;;5.80;4.65;;;28.50;62.10;;;;;;5104588;28;20035;-77
2023/06/12 11:48:16;;;;;;;8.55;4.75;;;28.60;61.70;;;;;;5106757;28;20030;-76
2023/06/12 11:50:50;;;;;;;6.40;4.60;;;28.70;61.80;;;;;;5100427;28;20020;-78
2023/06/12 11:53:17;;;;;;;6.47;4.30;;;28.60;61.70;;;;;;5108009;28;20122;-77
2023/06/12 11:55:46;;;;;;;5.63;5.07;;;28.50;61.20;;;;;;5107526;28;20034;-77
2023/06/12 11:58:12;;;;;;;6.20;4.97;;;28.70;61.70;;;;;;5104254;28;20063;-76
2023/06/12 12:00:40;;;;;;;6.13;4.50;;;28.70;61.30;;;;;;5104069;28;20421;-76
2023/06/12 12:03:09;;;;;;;5.50;4.65;;;28.80;62.70;;;;;;5106181;28;20035;-77
2023/06/12 12:05:37;;;;;;;5.30;4.80;;;28.90;61.50;;;;;;5107629;28;20031;-77
2023/06/12 12:08:04;;;;;;;8.32;4.82;;;29.00;60.80;;;;;;5128687;28;20036;-75
2023/06/12 12:10:31;;;;;;;5.78;4.68;;;29.10;60.80;;;;;;5121251;28;20038;-75
2023/06/12 12:12:59;;;;;;;11.57;5.10;;;28.90;60.90;;;;;;5126184;28;20035;-76
2023/06/12 12:15:26;;;;;;;8.68;5.63;;;28.80;61.00;;;;;;5113761;28;20039;-75
2023/06/12 12:17:53;;;;;;;9.02;5.05;;;28.90;61.20;;;;;;5110722;28;20020;-76
2023/06/12 12:20:21;;;;;;;5.60;4.90;;;28.90;61.60;;;;;;5109262;28;20024;-77
2023/06/12 12:22:50;;;;;;;6.78;4.38;;;29.00;60.50;;;;;;5104977;28;20034;-76
2023/06/12 12:25:21;;;;;;;7.95;4.57;;;28.80;60.30;;;;;;5106794;28;20027;-76
2023/06/12 12:27:49;;;;;;;5.43;4.70;;;28.90;60.20;;;;;;5099474;28;20023;-76
2023/06/12 12:30:15;;;;;;;8.15;5.15;;;28.70;61.30;;;;;;5110564;28;20034;-77
2023/06/12 12:32:46;;;;;;;8.75;5.18;;;28.60;60.40;;;;;;5103213;28;20040;-76
2023/06/12 12:35:12;;;;;;;9.15;4.70;;;28.60;60.70;;;;;;5102813;28;20039;-77
2023/06/12 12:37:38;;;;;;;5.30;4.80;;;28.30;60.70;;;;;;5108104;28;20028;-76
2023/06/12 12:40:09;;;;;;;5.65;4.63;;;28.40;61.20;;;;;;5105199;28;20039;-75
2023/06/12 12:42:36;;;;;;;10.70;4.97;;;28.50;61.00;;;;;;5107140;28;20039;-75
2023/06/12 12:45:02;;;;;;;4.55;4.05;;;28.40;60.10;;;;;;5108811;28;20149;-76
2023/06/12 12:47:29;;;;;;;9.98;4.22;;;28.40;61.00;;;;;;5107065;28;20036;-76
2023/06/12 12:49:55;;;;;;;5.68;4.05;;;28.40;60.60;;;;;;5105919;28;20034;-76
2023/06/12 12:52:20;;;;;;;8.27;5.00;;;28.60;60.00;;;;;;5107638;28;20106;-76
2023/06/12 12:54:46;;;;;;;5.65;4.43;;;28.80;60.00;;;;;;5107676;28;20039;-75
2023/06/12 12:57:12;;;;;;;9.38;4.57;;;29.00;59.70;;;;;;5108990;28;20023;-76
2023/06/12 12:59:38;;;;;;;7.72;5.10;;;29.30;59.70;;;;;;5105652;28;20425;-76
2023/06/12 13:02:04;;;;;;;7.40;5.30;;;29.60;58.80;;;;;;5095140;28;20472;-76
2023/06/12 13:04:30;;;;;;;8.68;4.97;;;29.70;57.60;;;;;;5113138;28;20051;-78
2023/06/12 13:06:56;;;;;;;5.20;4.70;;;29.40;57.60;;;;;;5114262;28;20468;-76
2023/06/12 13:09:22;;;;;;;9.00;4.75;;;29.50;58.50;;;;;;5106622;28;20026;-76
2023/06/12 13:11:47;;;;;;;5.10;4.68;;;29.40;58.80;;;;;;5104549;28;20050;-76
2023/06/12 13:14:13;;;;;;;6.63;4.68;;;29.60;58.10;;;;;;5108302;28;20042;-76